createdAt,value
2018-08-20T00:00:01.520Z,8.83
2018-08-20T00:02:35.702Z,9.40
2018-08-20T00:05:04.989Z,9.80
2018-08-20T00:07:33.781Z,9.13
2018-08-20T00:10:02.333Z,9.50
2018-08-20T00:12:30.765Z,9.50
2018-08-20T00:14:59.347Z,8.40
2018-08-20T00:17:28.059Z,8.20
2018-08-20T00:19:56.795Z,8.80
2018-08-20T00:22:25.272Z,8.13
2018-08-20T00:25:05.438Z,8.23
2018-08-20T00:27:35.108Z,8.10
2018-08-20T00:30:04.571Z,8.97
2018-08-20T00:32:33.037Z,8.00
2018-08-20T00:35:01.630Z,7.83
2018-08-20T00:37:30.274Z,8.13
2018-08-20T00:39:59.006Z,8.00
2018-08-20T00:42:27.485Z,8.80
2018-08-20T00:44:56.118Z,7.77
2018-08-20T00:47:24.604Z,8.00
2018-08-20T00:49:53.311Z,7.90
2018-08-20T00:52:21.996Z,8.03
2018-08-20T00:54:50.722Z,8.57
2018-08-20T00:57:19.450Z,8.03
2018-08-20T00:59:48.188Z,8.17
2018-08-20T01:02:21.173Z,8.10
2018-08-20T01:04:49.857Z,7.27
2018-08-20T01:07:18.340Z,8.27
2018-08-20T01:09:46.981Z,8.40
2018-08-20T01:12:15.721Z,8.20
2018-08-20T01:14:44.465Z,8.50
2018-08-20T01:17:13.226Z,7.30
2018-08-20T01:19:41.968Z,8.87
2018-08-20T01:22:10.649Z,9.60
2018-08-20T01:24:39.437Z,9.10
2018-08-20T01:27:08.134Z,9.10
2018-08-20T01:29:36.909Z,8.73
2018-08-20T01:32:05.398Z,8.63
2018-08-20T01:34:34.078Z,8.90
2018-08-20T01:37:02.562Z,8.37
2018-08-20T01:39:30.995Z,9.00
2018-08-20T01:41:59.596Z,8.50
2018-08-20T01:44:28.274Z,8.40
2018-08-20T01:46:57.033Z,9.10
2018-08-20T01:49:25.743Z,8.07
2018-08-20T01:51:54.290Z,8.50
2018-08-20T01:54:22.878Z,8.80
2018-08-20T01:56:51.590Z,7.80
2018-08-20T01:59:20.085Z,7.43
2018-08-20T02:01:48.504Z,9.10
2018-08-20T02:04:17.221Z,8.97
2018-08-20T02:06:45.966Z,8.57
2018-08-20T02:09:14.688Z,10.07
2018-08-20T02:11:43.378Z,9.80
2018-08-20T02:14:12.117Z,10.10
2018-08-20T02:16:40.834Z,10.40
2018-08-20T02:19:09.969Z,10.87
2018-08-20T02:21:38.682Z,9.47
2018-08-20T02:24:07.209Z,9.20
2018-08-20T02:26:35.823Z,10.00
2018-08-20T02:29:05.166Z,10.00
2018-08-20T02:31:33.874Z,10.23
2018-08-20T02:34:02.640Z,9.80
2018-08-20T02:36:31.193Z,9.23
2018-08-20T02:39:00.554Z,10.73
2018-08-20T02:41:29.295Z,9.37
2018-08-20T02:43:57.813Z,8.97
2018-08-20T02:46:37.931Z,9.37
2018-08-20T02:49:06.910Z,8.47
2018-08-20T02:51:35.420Z,8.40
2018-08-20T02:54:04.091Z,9.30
2018-08-20T02:56:33.490Z,9.00
2018-08-20T02:59:02.229Z,10.20
2018-08-20T03:01:30.920Z,9.60
2018-08-20T03:03:59.646Z,9.30
2018-08-20T03:06:28.184Z,8.80
2018-08-20T03:08:56.747Z,9.97
2018-08-20T03:11:25.275Z,10.93
2018-08-20T03:13:53.908Z,9.93
2018-08-20T03:16:22.653Z,10.17
2018-08-20T03:18:51.322Z,10.23
2018-08-20T03:21:20.112Z,10.03
2018-08-20T03:23:48.855Z,10.23
2018-08-20T03:26:17.552Z,9.43
2018-08-20T03:28:46.239Z,10.30
2018-08-20T03:31:14.931Z,9.73
2018-08-20T03:33:43.688Z,10.60
2018-08-20T03:36:12.353Z,10.57
2018-08-20T03:38:41.075Z,10.17
2018-08-20T03:41:09.790Z,10.70
2018-08-20T03:43:38.524Z,9.60
2018-08-20T03:46:07.236Z,10.50
2018-08-20T03:48:35.945Z,9.37
2018-08-20T03:51:04.622Z,9.80
2018-08-20T03:53:33.339Z,9.40
2018-08-20T03:56:02.014Z,9.10
2018-08-20T03:58:30.696Z,9.47
2018-08-20T04:00:59.431Z,9.47
2018-08-20T04:03:28.089Z,9.43
2018-08-20T04:05:56.818Z,9.73
2018-08-20T04:08:25.319Z,9.00
2018-08-20T04:10:53.921Z,10.63
2018-08-20T04:13:22.613Z,10.10
2018-08-20T04:15:51.324Z,10.43
2018-08-20T04:18:19.992Z,9.40
2018-08-20T04:20:48.481Z,9.27
2018-08-20T04:23:17.162Z,8.70
2018-08-20T04:25:45.665Z,8.67
2018-08-20T04:28:14.025Z,9.13
2018-08-20T04:30:42.454Z,8.00
2018-08-20T04:33:11.129Z,7.77
2018-08-20T04:35:39.845Z,7.30
2018-08-20T04:38:08.627Z,8.20
2018-08-20T04:40:37.333Z,8.17
2018-08-20T04:43:06.083Z,7.80
2018-08-20T04:45:34.694Z,7.60
2018-08-20T04:48:03.157Z,8.10
2018-08-20T04:50:31.810Z,7.23
2018-08-20T04:53:00.197Z,7.47
2018-08-20T04:55:28.902Z,6.67
2018-08-20T04:57:57.671Z,7.73
2018-08-20T05:00:26.478Z,8.30
2018-08-20T05:02:54.905Z,7.23
2018-08-20T05:05:23.516Z,7.40
2018-08-20T05:07:51.976Z,8.80
2018-08-20T05:10:20.581Z,7.07
2018-08-20T05:12:49.048Z,6.20
2018-08-20T05:15:17.652Z,6.50
2018-08-20T05:17:46.138Z,7.20
2018-08-20T05:20:14.545Z,7.40
2018-08-20T05:22:42.944Z,7.47
2018-08-20T05:25:11.343Z,8.20
2018-08-20T05:27:39.758Z,8.20
2018-08-20T05:30:08.811Z,6.73
2018-08-20T05:32:37.543Z,6.60
2018-08-20T05:35:06.193Z,7.97
2018-08-20T05:37:35.118Z,7.70
2018-08-20T05:40:03.891Z,6.20
2018-08-20T05:42:33.212Z,6.70
2018-08-20T05:45:01.583Z,6.93
2018-08-20T05:47:30.082Z,7.17
2018-08-20T05:49:58.553Z,7.83
2018-08-20T05:52:27.169Z,7.00
2018-08-20T05:54:55.843Z,6.37
2018-08-20T05:57:24.393Z,9.70
2018-08-20T05:59:52.764Z,8.77
2018-08-20T06:02:21.137Z,9.60
2018-08-20T06:04:50.341Z,9.10
2018-08-20T06:07:18.980Z,9.10
2018-08-20T06:09:47.755Z,8.67
2018-08-20T06:12:16.403Z,7.90
2018-08-20T06:14:45.069Z,6.13
2018-08-20T06:17:13.757Z,5.70
2018-08-20T06:19:42.447Z,6.17
2018-08-20T06:22:11.213Z,5.40
2018-08-20T06:24:39.689Z,5.47
2018-08-20T06:27:08.122Z,5.47
2018-08-20T06:29:36.735Z,6.53
2018-08-20T06:32:05.539Z,5.80
2018-08-20T06:34:35.156Z,8.40
2018-08-20T06:37:03.673Z,5.40
2018-08-20T06:39:32.276Z,6.10
2018-08-20T06:42:01.064Z,5.60
2018-08-20T06:44:29.513Z,5.47
2018-08-20T06:46:58.193Z,6.37
2018-08-20T06:49:26.859Z,5.80
2018-08-20T06:51:55.505Z,5.97
2018-08-20T06:54:24.307Z,6.83
2018-08-20T06:56:52.973Z,6.30
2018-08-20T06:59:21.494Z,5.30
2018-08-20T07:01:49.895Z,5.40
2018-08-20T07:04:18.267Z,6.20
2018-08-20T07:06:46.689Z,5.67
2018-08-20T07:09:15.334Z,6.03
2018-08-20T07:11:44.062Z,6.40
2018-08-20T07:14:12.750Z,5.77
2018-08-20T07:16:41.225Z,6.60
2018-08-20T07:19:09.869Z,5.33
2018-08-20T07:21:38.571Z,5.20
2018-08-20T07:24:07.288Z,5.40
2018-08-20T07:26:35.754Z,5.30
2018-08-20T07:29:04.806Z,5.60
2018-08-20T07:31:33.510Z,4.87
2018-08-20T07:34:02.031Z,5.90
2018-08-20T07:36:30.421Z,5.90
2018-08-20T07:38:58.829Z,6.73
2018-08-20T07:41:27.437Z,7.10
2018-08-20T07:43:55.930Z,7.00
2018-08-20T07:46:24.554Z,7.20
2018-08-20T07:48:53.221Z,7.43
2018-08-20T07:51:21.917Z,9.20
2018-08-20T07:53:50.581Z,9.50
2018-08-20T07:56:19.084Z,8.93
2018-08-20T07:58:47.709Z,9.20
2018-08-20T08:01:16.220Z,8.87
2018-08-20T08:03:44.678Z,9.53
2018-08-20T08:06:13.788Z,10.20
2018-08-20T08:08:43.987Z,10.43
2018-08-20T08:11:12.423Z,10.03
2018-08-20T08:13:41.052Z,10.50
2018-08-20T08:16:09.807Z,10.07
2018-08-20T08:18:38.480Z,10.10
2018-08-20T08:21:07.009Z,10.90
2018-08-20T08:23:36.584Z,12.00
2018-08-20T08:26:06.036Z,10.23
2018-08-20T08:28:34.565Z,10.10
2018-08-20T08:31:04.460Z,14.07
2018-08-20T08:33:33.020Z,13.97
2018-08-20T08:36:01.521Z,10.60
2018-08-20T08:38:30.152Z,10.83
2018-08-20T08:40:58.834Z,10.60
2018-08-20T08:43:27.562Z,9.90
2018-08-20T08:45:56.268Z,10.30
2018-08-20T08:48:24.742Z,9.67
2018-08-20T08:50:53.418Z,10.60
2018-08-20T08:53:21.877Z,10.20
2018-08-20T08:55:50.518Z,11.20
2018-08-20T08:58:19.218Z,10.13
2018-08-20T09:00:48.001Z,10.60
2018-08-20T09:03:16.668Z,10.77
2018-08-20T09:05:45.228Z,9.93
2018-08-20T09:08:13.637Z,10.10
2018-08-20T09:10:42.123Z,10.37
2018-08-20T09:13:10.737Z,9.03
2018-08-20T09:15:39.237Z,9.23
2018-08-20T09:18:07.673Z,10.53
2018-08-20T09:20:36.293Z,10.30
2018-08-20T09:23:05.095Z,9.20
2018-08-20T09:25:33.833Z,10.40
2018-08-20T09:28:02.318Z,11.23
2018-08-20T09:30:30.911Z,11.00
2018-08-20T09:32:59.664Z,12.37
2018-08-20T09:35:28.915Z,9.40
2018-08-20T09:37:57.324Z,11.63
2018-08-20T09:40:25.975Z,10.53
2018-08-20T09:42:54.708Z,11.33
2018-08-20T09:45:23.427Z,11.80
2018-08-20T09:47:51.928Z,10.93
2018-08-20T09:50:20.275Z,11.17
2018-08-20T09:52:48.671Z,10.37
2018-08-20T09:55:17.054Z,10.83
2018-08-20T09:57:45.654Z,11.83
2018-08-20T10:00:20.795Z,10.90
2018-08-20T10:02:50.842Z,10.47
2018-08-20T10:05:19.662Z,11.93
2018-08-20T10:07:48.530Z,10.40
2018-08-20T10:10:16.947Z,10.93
2018-08-20T10:12:46.035Z,11.30
2018-08-20T10:15:15.014Z,9.27
2018-08-20T10:17:44.108Z,10.73
2018-08-20T10:20:13.803Z,10.63
2018-08-20T10:22:42.312Z,9.10
2018-08-20T10:25:10.671Z,9.57
2018-08-20T10:27:39.134Z,8.77
2018-08-20T10:30:09.928Z,10.23
2018-08-20T10:32:38.611Z,16.43
2018-08-20T10:35:07.653Z,11.10
2018-08-20T10:37:36.211Z,8.87
2018-08-20T10:40:04.924Z,9.27
2018-08-20T10:42:33.440Z,8.77
2018-08-20T10:45:07.452Z,10.03
2018-08-20T10:47:36.117Z,12.43
2018-08-20T10:50:04.855Z,9.87
2018-08-20T10:52:33.520Z,9.23
2018-08-20T10:55:02.011Z,9.13
2018-08-20T10:57:30.630Z,9.43
2018-08-20T10:59:59.078Z,9.33
2018-08-20T11:02:27.714Z,8.90
2018-08-20T11:04:56.428Z,9.40
2018-08-20T11:07:25.133Z,9.10
2018-08-20T11:09:53.625Z,13.73
2018-08-20T11:12:22.027Z,8.50
2018-08-20T11:14:50.482Z,10.33
2018-08-20T11:17:18.880Z,10.80
2018-08-20T11:19:47.626Z,9.13
2018-08-20T11:22:16.296Z,10.20
2018-08-20T11:24:44.816Z,9.00
2018-08-20T11:27:13.191Z,10.10
2018-08-20T11:29:41.827Z,9.23
2018-08-20T11:32:10.309Z,9.43
2018-08-20T11:34:38.930Z,11.97
2018-08-20T11:37:07.449Z,8.50
2018-08-20T11:39:36.057Z,9.40
2018-08-20T11:42:05.023Z,10.00
2018-08-20T11:44:33.494Z,10.70
2018-08-20T11:47:02.084Z,8.60
2018-08-20T11:49:30.730Z,10.00
2018-08-20T11:51:59.731Z,8.53
2018-08-20T11:54:28.178Z,8.57
2018-08-20T11:56:56.572Z,9.47
2018-08-20T11:59:29.275Z,9.23
2018-08-20T12:02:04.812Z,8.50
2018-08-20T12:04:36.277Z,8.43
2018-08-20T12:07:10.021Z,7.47
2018-08-20T12:12:27.774Z,8.37
2018-08-20T12:15:07.626Z,7.87
2018-08-20T12:17:42.177Z,7.77
2018-08-20T12:20:16.921Z,7.03
2018-08-20T12:25:58.544Z,7.47
2018-08-20T12:28:31.004Z,6.10
2018-08-20T12:31:14.304Z,6.33
2018-08-20T12:33:54.631Z,6.00
2018-08-20T12:39:22.951Z,6.40
2018-08-20T13:35:42.221Z,8.10
2018-08-20T13:38:23.147Z,11.03
2018-08-20T13:41:05.297Z,8.53
2018-08-20T13:43:47.921Z,6.20
2018-08-20T13:46:37.081Z,5.87
2018-08-20T13:49:21.278Z,5.20
2018-08-20T13:52:03.332Z,6.03
2018-08-20T13:54:41.486Z,5.33
2018-08-20T13:57:11.645Z,4.20
2018-08-20T13:59:56.107Z,4.37
2018-08-20T14:02:41.592Z,4.50
2018-08-20T14:05:32.384Z,4.50
2018-08-20T14:11:09.639Z,4.20
2018-08-20T14:13:38.108Z,4.60
2018-08-20T14:16:06.715Z,4.80
2018-08-20T14:18:35.216Z,3.50
2018-08-20T14:21:10.394Z,3.93
2018-08-20T14:23:39.423Z,3.53
2018-08-20T14:26:07.819Z,5.77
2018-08-20T14:28:36.207Z,5.37
2018-08-20T14:31:04.829Z,5.00
2018-08-20T14:33:33.352Z,4.47
2018-08-20T14:36:02.092Z,3.80
2018-08-20T14:38:30.814Z,4.47
2018-08-20T14:40:59.313Z,3.93
2018-08-20T14:43:30.754Z,4.70
2018-08-20T14:46:04.840Z,6.33
2018-08-20T14:48:33.518Z,4.00
2018-08-20T14:51:02.057Z,3.47
2018-08-20T14:53:30.736Z,3.80
2018-08-20T14:55:59.156Z,3.63
2018-08-20T14:58:27.551Z,4.00
2018-08-20T15:00:55.889Z,4.00
2018-08-20T15:03:24.488Z,4.03
2018-08-20T15:05:52.835Z,3.40
2018-08-20T15:08:21.493Z,4.00
2018-08-20T15:10:49.943Z,2.77
2018-08-20T15:13:18.545Z,3.10
2018-08-20T15:15:47.387Z,3.20
2018-08-20T15:18:15.925Z,3.00
2018-08-20T15:20:44.575Z,3.50
2018-08-20T15:23:13.290Z,3.30
2018-08-20T15:25:42.007Z,3.97
2018-08-20T15:28:10.505Z,3.90
2018-08-20T15:30:38.944Z,3.77
2018-08-20T15:33:07.816Z,3.20
2018-08-20T15:35:36.466Z,3.13
2018-08-20T15:38:05.193Z,3.73
2018-08-20T15:40:33.890Z,3.33
2018-08-20T15:43:02.566Z,3.17
2018-08-20T15:45:31.043Z,2.77
2018-08-20T15:47:59.466Z,3.17
2018-08-20T15:50:27.868Z,3.20
2018-08-20T15:53:04.468Z,3.60
2018-08-20T15:55:51.455Z,3.13
2018-08-20T15:58:26.437Z,3.47
2018-08-20T16:01:06.227Z,3.40
2018-08-20T16:06:44.725Z,3.13
2018-08-20T16:09:18.198Z,3.70
2018-08-20T16:11:56.474Z,4.10
2018-08-20T16:17:46.377Z,31.50
2018-08-20T16:21:46.457Z,4.40
2018-08-20T16:24:33.617Z,2.80
2018-08-20T16:27:11.771Z,3.00
2018-08-20T16:29:47.480Z,3.27
2018-08-20T16:32:16.277Z,3.30
2018-08-20T16:34:46.784Z,10.80
2018-08-20T16:37:16.903Z,2.53
2018-08-20T16:39:47.449Z,2.80
2018-08-20T16:42:36.230Z,2.67
2018-08-20T16:45:15.533Z,6.07
2018-08-20T16:47:55.260Z,2.97
2018-08-20T16:50:40.378Z,2.70
2018-08-20T16:53:45.204Z,3.10
2018-08-20T16:56:34.082Z,2.50
2018-08-20T16:59:08.261Z,7.90
2018-08-20T17:01:46.302Z,2.73
2018-08-20T17:04:27.167Z,1.93
2018-08-20T17:06:57.687Z,1.87
2018-08-20T17:09:26.415Z,2.27
2018-08-20T17:11:55.160Z,2.27
2018-08-20T17:14:23.875Z,2.03
2018-08-20T17:16:52.387Z,2.33
2018-08-20T17:19:20.866Z,2.43
2018-08-20T17:21:49.548Z,2.57
2018-08-20T17:24:30.599Z,2.33
2018-08-20T17:27:01.172Z,1.90
2018-08-20T17:29:29.903Z,2.70
2018-08-20T17:31:59.987Z,2.40
2018-08-20T17:34:28.630Z,2.50
2018-08-20T17:36:57.093Z,6.37
2018-08-20T17:39:25.520Z,2.20
2018-08-20T17:41:53.888Z,2.57
2018-08-20T17:44:23.236Z,2.30
2018-08-20T17:46:51.640Z,2.63
2018-08-20T17:49:25.705Z,2.53
2018-08-20T17:51:54.077Z,3.53
2018-08-20T17:54:22.457Z,2.73
2018-08-20T17:56:51.082Z,3.13
2018-08-20T17:59:22.426Z,2.50
2018-08-20T18:01:50.937Z,2.80
2018-08-20T18:04:19.521Z,9.83
2018-08-20T18:06:51.701Z,7.43
2018-08-20T18:09:20.204Z,2.37
2018-08-20T18:11:51.644Z,2.30
2018-08-20T18:14:21.786Z,2.57
2018-08-20T18:16:50.241Z,3.00
2018-08-20T18:19:18.841Z,3.30
2018-08-20T18:21:47.524Z,9.43
2018-08-20T18:24:19.096Z,4.17
2018-08-20T18:26:50.421Z,5.23
2018-08-20T18:29:19.051Z,3.40
2018-08-20T18:31:52.957Z,3.27
2018-08-20T18:34:21.804Z,2.67
2018-08-20T18:36:50.286Z,2.47
2018-08-20T18:39:18.938Z,2.97
2018-08-20T18:41:50.333Z,3.10
2018-08-20T18:44:19.954Z,2.60
2018-08-20T18:47:03.665Z,2.60
2018-08-20T18:49:51.409Z,3.20
2018-08-20T18:52:34.969Z,3.30
2018-08-20T18:55:18.672Z,4.00
2018-08-20T18:58:02.970Z,5.13
2018-08-20T19:00:46.474Z,7.77
2018-08-20T19:03:35.390Z,4.33
2018-08-20T19:06:18.664Z,9.73
2018-08-20T19:09:02.212Z,4.27
2018-08-20T19:11:45.597Z,3.47
2018-08-20T19:14:29.083Z,3.80
2018-08-20T19:17:17.909Z,4.70
2018-08-20T19:20:01.787Z,3.63
2018-08-20T19:22:45.885Z,3.20
2018-08-20T19:25:29.212Z,3.17
2018-08-20T19:28:14.306Z,5.27
2018-08-20T19:30:57.749Z,3.70
2018-08-20T19:33:41.776Z,3.67
2018-08-20T19:36:25.126Z,2.87
2018-08-20T19:39:08.453Z,3.20
2018-08-20T19:41:52.602Z,2.90
2018-08-20T19:44:36.011Z,3.00
2018-08-20T19:47:19.351Z,4.60
2018-08-20T19:50:03.374Z,3.33
2018-08-20T19:52:46.849Z,3.97
2018-08-20T19:55:30.278Z,9.43
2018-08-20T19:58:20.059Z,3.10
2018-08-20T20:01:09.470Z,3.00
2018-08-20T20:03:53.530Z,2.60
2018-08-20T20:06:38.309Z,2.83
2018-08-20T20:09:21.578Z,4.70
2018-08-20T20:12:05.176Z,2.90
2018-08-20T20:14:48.633Z,3.27
2018-08-20T20:17:32.185Z,5.50
2018-08-20T20:20:15.827Z,5.20
2018-08-20T20:22:59.209Z,7.00
2018-08-20T20:25:42.817Z,3.87
2018-08-20T20:28:26.192Z,2.77
2018-08-20T20:31:10.446Z,2.20
2018-08-20T20:33:53.950Z,2.47
2018-08-20T20:36:37.384Z,7.40
2018-08-20T20:39:20.895Z,5.20
2018-08-20T20:42:05.058Z,2.50
2018-08-20T20:44:48.613Z,17.90
2018-08-20T20:47:32.168Z,2.50
2018-08-20T20:50:15.557Z,1.70
2018-08-20T20:52:58.827Z,1.67
2018-08-20T20:55:42.346Z,1.70
2018-08-20T20:58:31.283Z,4.70
2018-08-20T21:01:14.717Z,2.13
2018-08-20T21:03:57.978Z,3.10
2018-08-20T21:06:42.098Z,2.00
2018-08-20T21:09:25.732Z,2.37
2018-08-20T21:12:09.365Z,3.90
2018-08-20T21:14:52.737Z,1.93
2018-08-20T21:17:36.697Z,2.30
2018-08-20T21:20:20.028Z,1.87
2018-08-20T21:23:03.514Z,3.23
2018-08-20T21:25:46.872Z,4.40
2018-08-20T21:28:34.770Z,2.40
2018-08-20T21:31:19.485Z,5.17
2018-08-20T21:34:02.964Z,2.53
2018-08-20T21:36:46.417Z,3.80
2018-08-20T21:39:29.942Z,3.27
2018-08-20T21:42:13.313Z,3.07
2018-08-20T21:44:57.513Z,3.10
2018-08-20T21:47:40.802Z,5.03
2018-08-20T21:50:24.322Z,3.10
2018-08-20T21:53:07.964Z,1.63
2018-08-20T21:55:51.603Z,2.27
2018-08-20T21:58:36.445Z,13.80
2018-08-20T22:01:20.149Z,2.23
2018-08-20T22:04:07.912Z,3.13
2018-08-20T22:06:51.553Z,3.60
2018-08-20T22:09:35.189Z,2.60
2018-08-20T22:12:18.773Z,2.20
2018-08-20T22:15:03.314Z,1.60
2018-08-20T22:17:46.938Z,2.13
2018-08-20T22:20:30.605Z,2.40
2018-08-20T22:23:25.271Z,1.87
2018-08-20T22:25:57.833Z,2.53
2018-08-20T22:28:41.973Z,3.20
2018-08-20T22:31:25.617Z,2.53
2018-08-20T22:34:09.254Z,2.60
2018-08-20T22:36:58.141Z,2.53
2018-08-20T22:39:42.751Z,2.83
2018-08-20T22:42:42.998Z,2.47
2018-08-20T22:45:26.662Z,3.37
2018-08-20T22:48:10.257Z,3.50
2018-08-20T22:51:07.438Z,3.43
2018-08-20T22:53:52.179Z,3.00
2018-08-20T22:56:36.328Z,2.77
2018-08-20T22:59:20.289Z,2.57
2018-08-20T23:02:03.905Z,3.07
2018-08-20T23:04:51.796Z,3.47
2018-08-20T23:07:35.469Z,2.53
2018-08-20T23:10:19.196Z,2.70
2018-08-20T23:13:02.773Z,2.87
2018-08-20T23:15:46.215Z,2.77
2018-08-20T23:18:29.747Z,2.77
2018-08-20T23:21:13.194Z,3.53
2018-08-20T23:23:57.622Z,3.10
2018-08-20T23:26:41.264Z,2.93
2018-08-20T23:29:24.926Z,2.80
2018-08-20T23:32:08.508Z,3.33
2018-08-20T23:34:53.671Z,3.97
2018-08-20T23:37:37.275Z,3.63
2018-08-20T23:40:20.890Z,4.20
2018-08-20T23:43:05.432Z,3.80
2018-08-20T23:45:48.844Z,3.53
2018-08-20T23:48:32.392Z,3.83
2018-08-20T23:51:16.032Z,3.27
2018-08-20T23:53:59.726Z,2.93
2018-08-20T23:56:43.384Z,3.13
2018-08-20T23:59:27.054Z,2.77
